TimeCDT,TemperatureF,Dew PointF,Humidity,Sea Level PressureIn,VisibilityMPH,Wind Direction,Wind SpeedMPH,Gust SpeedMPH,PrecipitationIn,Events,Conditions,WindDirDegrees,DateUTC
12:56 AM,50.0,32.0,50,30.30,10.0,East,4.6,-,N/A,,Clear,90,2013-04-22 05:56:00
1:56 AM,48.9,31.1,50,30.29,10.0,ENE,3.5,-,N/A,,Clear,60,2013-04-22 06:56:00
2:56 AM,47.8,31.1,52,30.27,10.0,East,4.6,-,N/A,,Clear,80,2013-04-22 07:56:00
3:56 AM,46.9,32.0,56,30.26,10.0,East,5.8,-,N/A,,Clear,80,2013-04-22 08:56:00
4:56 AM,46.9,32.0,56,30.26,10.0,East,4.6,-,N/A,,Clear,80,2013-04-22 09:56:00
5:56 AM,45.9,34.0,63,30.27,10.0,East,4.6,-,N/A,,Clear,100,2013-04-22 10:56:00
6:56 AM,46.9,34.9,63,30.28,10.0,ESE,4.6,-,N/A,,Clear,110,2013-04-22 11:56:00
7:56 AM,50.9,37.9,61,30.28,10.0,SE,4.6,-,N/A,,Clear,140,2013-04-22 12:56:00
8:56 AM,55.9,41.0,57,30.27,10.0,South,5.8,-,N/A,,Clear,180,2013-04-22 13:56:00
9:56 AM,63.0,45.9,54,30.27,10.0,South,10.4,-,N/A,,Clear,180,2013-04-22 14:56:00
10:56 AM,65.8,45.9,48,30.26,10.0,SSE,10.4,-,N/A,,Clear,160,2013-04-22 15:56:00
11:56 AM,68.9,46.9,45,30.24,10.0,South,9.2,-,N/A,,Clear,180,2013-04-22 16:56:00
12:56 PM,72.0,47.8,42,30.21,10.0,SSW,9.2,-,0.00,,Scattered Clouds,210,2013-04-22 17:56:00
1:56 PM,72.9,46.9,40,30.18,10.0,South,13.8,-,N/A,,Scattered Clouds,190,2013-04-22 18:56:00
2:56 PM,72.0,46.9,41,30.16,10.0,Variable,6.9,-,N/A,,Scattered Clouds,0,2013-04-22 19:56:00
3:56 PM,72.9,46.9,40,30.13,10.0,SSW,8.1,-,N/A,,Scattered Clouds,200,2013-04-22 20:56:00
4:56 PM,72.0,45.9,39,30.11,10.0,SE,9.2,-,N/A,,Partly Cloudy,140,2013-04-22 21:56:00
5:56 PM,70.9,45.9,41,30.10,10.0,South,11.5,-,N/A,,Partly Cloudy,190,2013-04-22 22:56:00
6:56 PM,68.0,45.9,45,30.09,10.0,South,8.1,-,N/A,,Clear,170,2013-04-22 23:56:00
7:56 PM,63.9,45.0,50,30.09,10.0,SSE,5.8,-,N/A,,Clear,150,2013-04-23 00:56:00
8:56 PM,61.0,45.9,58,30.10,10.0,SE,5.8,-,N/A,,Clear,130,2013-04-23 01:56:00
9:56 PM,61.0,43.9,53,30.10,10.0,SE,5.8,-,N/A,,Clear,130,2013-04-23 02:56:00
10:56 PM,59.9,43.9,55,30.10,10.0,SE,5.8,-,N/A,,Clear,130,2013-04-23 03:56:00
11:56 PM,55.9,43.9,64,30.11,10.0,South,4.6,-,N/A,,Clear,170,2013-04-23 04:56:00